GBYD

Banjul International Airport

Banjul, Gambia
METAR GBYD 191400Z 24012KT 9000 NSC 31/08 Q1012
Observed Flight Rules
Jan-19 @ 14:00 UTC (2 hours ago) Visual Flight Rules
Wind Visibility Clouds
240° at 12 knots 8,996 meters
  • Clear skies
Temperatures Readings
Current 31°C / 88°F
Dewpoint 8°C / 46°F
Humidity 24%
Altimeter 29.88" Hg
Pressure 1012 hPa
Elevation 36
METAR GBYD 191400Z 24012KT 9000 NSC 31/08 Q1012
Observed Flight Rules
Jan-19 @ 14:00 UTC
(2 hours ago)
VFR
Wind Visibility
240° at 12 knots 8,996 meters
Clouds
  • Clear skies
Temperature Dewpoint
31°C / 88°F 8°C / 46°F
Humidity Altimeter Pressure
24% 29.88" Hg 1012 hPa